Time;durP1;ratioP1;P1;durP2;ratioP2;P2;SDS_P1;SDS_P2;PMS_P1;PMS_P2;Temp;Humidity;BMP_temperature;BMP_pressure;BME280_temperature;BME280_humidity;BME280_pressure;Samples;Min_cycle;Max_cycle;Signal;HPM_P1;HPM_P2
2023/04/17 00:00:03;;;;;;;38.10;24.87;;;8.30;1.00;;;;;;5033617;28;20660;-52
2023/04/17 00:02:29;;;;;;;39.80;25.27;;;8.30;1.00;;;;;;5033740;28;20641;-52
2023/04/17 00:04:55;;;;;;;43.13;26.07;;;8.30;99.90;;;;;;5033873;28;20520;-52
2023/04/17 00:07:21;;;;;;;38.23;25.90;;;8.30;99.90;;;;;;5033830;28;20209;-52
2023/04/17 00:09:47;;;;;;;42.17;26.33;;;8.30;99.90;;;;;;5033930;28;20817;-52
2023/04/17 00:12:13;;;;;;;42.80;25.50;;;8.30;99.90;;;;;;5033825;28;20410;-52
2023/04/17 00:14:39;;;;;;;39.97;25.83;;;8.20;99.90;;;;;;5033725;28;20421;-52
2023/04/17 00:17:04;;;;;;;37.03;24.40;;;8.20;99.90;;;;;;5034006;28;20184;-52
2023/04/17 00:19:30;;;;;;;36.47;24.43;;;8.20;99.90;;;;;;5033839;28;20186;-52
2023/04/17 00:21:55;;;;;;;46.40;27.07;;;8.20;99.90;;;;;;5033994;28;20634;-52
2023/04/17 00:24:21;;;;;;;40.63;26.50;;;8.10;1.00;;;;;;5034034;28;20194;-53
2023/04/17 00:26:46;;;;;;;43.47;26.17;;;8.10;1.00;;;;;;5032611;28;20185;-53
2023/04/17 00:29:12;;;;;;;40.70;25.70;;;8.10;1.00;;;;;;5033438;28;20210;-53
2023/04/17 00:31:37;;;;;;;40.70;24.23;;;8.10;99.90;;;;;;5033477;28;20178;-53
2023/04/17 00:34:03;;;;;;;41.70;24.10;;;8.00;1.00;;;;;;5033709;28;20207;-52
2023/04/17 00:36:30;;;;;;;40.40;24.97;;;8.00;99.90;;;;;;5033995;28;20211;-53
2023/04/17 00:38:56;;;;;;;35.67;24.33;;;8.00;99.90;;;;;;5033831;28;20532;-53
2023/04/17 00:41:22;;;;;;;41.30;24.73;;;8.00;1.00;;;;;;5033822;28;20407;-54
2023/04/17 00:43:47;;;;;;;45.53;26.57;;;7.90;99.90;;;;;;5033670;28;20733;-52
2023/04/17 00:46:14;;;;;;;42.80;26.53;;;7.90;99.90;;;;;;5033642;28;20190;-53
2023/04/17 00:48:40;;;;;;;40.10;24.97;;;7.90;1.00;;;;;;5033091;28;20235;-53
2023/04/17 00:51:05;;;;;;;37.50;24.63;;;7.80;99.90;;;;;;5036210;28;20775;-53
2023/04/17 00:53:32;;;;;;;46.60;26.50;;;7.80;99.90;;;;;;5037387;28;20235;-52
2023/04/17 00:55:59;;;;;;;39.47;26.13;;;7.80;99.90;;;;;;5037120;28;20682;-53
2023/04/17 00:58:25;;;;;;;44.63;25.77;;;7.80;1.00;;;;;;5037401;28;20417;-53
2023/04/17 01:00:51;;;;;;;44.67;24.93;;;7.80;11.10;;;;;;5037540;28;20443;-53
2023/04/17 01:03:16;;;;;;;41.13;25.27;;;7.70;1.00;;;;;;5037197;28;20818;-53
2023/04/17 01:05:44;;;;;;;44.33;26.03;;;7.70;1.00;;;;;;5036795;28;20184;-53
2023/04/17 01:08:09;;;;;;;44.90;26.20;;;7.70;1.00;;;;;;5036764;28;20193;-53
2023/04/17 01:10:35;;;;;;;50.70;26.40;;;7.60;1.00;;;;;;5036564;28;20420;-53
2023/04/17 01:13:05;;;;;;;47.30;26.80;;;7.60;37.90;;;;;;5036879;28;20265;-52
2023/04/17 01:15:31;;;;;;;41.20;25.67;;;7.60;99.90;;;;;;5037038;28;20310;-53
2023/04/17 01:17:57;;;;;;;42.27;26.37;;;7.60;99.90;;;;;;5036815;28;20422;-52
2023/04/17 01:20:24;;;;;;;45.20;26.20;;;7.60;99.90;;;;;;5037033;28;20788;-52
2023/04/17 01:22:50;;;;;;;43.83;26.57;;;7.50;1.00;;;;;;5036952;28;20180;-53
2023/04/17 01:25:19;;;;;;;45.77;27.07;;;7.50;1.00;;;;;;5036754;28;20426;-53
2023/04/17 01:27:44;;;;;;;42.53;27.53;;;7.50;1.00;;;;;;5036692;28;20414;-52
2023/04/17 01:30:11;;;;;;;40.87;26.47;;;7.50;7.00;;;;;;5036613;28;20932;-52
2023/04/17 01:32:36;;;;;;;44.17;26.83;;;7.40;99.90;;;;;;5036485;28;20190;-52
2023/04/17 01:35:02;;;;;;;46.20;26.97;;;7.50;99.90;;;;;;5036661;28;20464;-52
2023/04/17 01:37:28;;;;;;;44.67;26.47;;;7.40;99.90;;;;;;5036685;28;20521;-52
2023/04/17 01:39:54;;;;;;;41.53;25.60;;;7.40;99.90;;;;;;5036289;28;20183;-52
2023/04/17 01:42:20;;;;;;;51.83;27.87;;;7.40;99.90;;;;;;5036365;28;20528;-51
2023/04/17 01:44:46;;;;;;;43.80;26.90;;;7.40;99.90;;;;;;5036328;28;20414;-52
2023/04/17 01:47:12;;;;;;;46.53;26.90;;;7.40;1.00;;;;;;5035906;28;20469;-52
2023/04/17 01:49:37;;;;;;;44.50;26.90;;;7.40;1.00;;;;;;5036333;28;20672;-52
2023/04/17 01:52:03;;;;;;;43.57;27.63;;;7.40;1.00;;;;;;5036339;28;20265;-52
2023/04/17 01:54:28;;;;;;;43.23;26.00;;;7.30;1.00;;;;;;5036026;28;20581;-52
2023/04/17 01:56:55;;;;;;;41.23;26.67;;;7.30;1.00;;;;;;5068165;28;20183;-52
2023/04/17 01:59:21;;;;;;;46.40;27.67;;;7.40;1.00;;;;;;5036517;28;20183;-52
2023/04/17 02:01:47;;;;;;;49.53;27.17;;;7.30;1.00;;;;;;5035354;28;20410;-52
2023/04/17 02:04:13;;;;;;;45.67;26.57;;;7.30;1.00;;;;;;5036046;28;20191;-52
2023/04/17 02:06:38;;;;;;;46.00;26.87;;;7.20;1.00;;;;;;5036096;28;20472;-52
2023/04/17 02:09:04;;;;;;;50.23;28.40;;;7.20;1.00;;;;;;5035826;28;20189;-52
2023/04/17 02:11:30;;;;;;;46.70;26.70;;;7.20;1.00;;;;;;5035891;28;20213;-53
2023/04/17 02:13:56;;;;;;;45.93;26.80;;;7.20;1.00;;;;;;5036148;28;20452;-52
2023/04/17 02:16:21;;;;;;;46.87;27.57;;;7.20;1.00;;;;;;5035862;28;20300;-52
2023/04/17 02:18:48;;;;;;;47.00;28.00;;;7.20;1.00;;;;;;5035949;28;20192;-52
2023/04/17 02:21:13;;;;;;;41.73;26.30;;;7.20;1.00;;;;;;5036082;28;20528;-52
2023/04/17 02:23:39;;;;;;;44.60;28.53;;;7.20;1.00;;;;;;5035700;28;20418;-52
2023/04/17 02:26:04;;;;;;;46.77;28.07;;;7.20;1.00;;;;;;5035625;28;20650;-52
2023/04/17 02:28:30;;;;;;;44.93;27.67;;;7.20;1.00;;;;;;5035573;28;20237;-52
2023/04/17 02:30:56;;;;;;;47.37;29.53;;;7.20;1.00;;;;;;5035338;28;20180;-52
2023/04/17 02:33:21;;;;;;;50.00;29.90;;;7.10;1.00;;;;;;5035670;28;20248;-53
2023/04/17 02:35:47;;;;;;;51.00;30.50;;;7.10;1.00;;;;;;5035443;28;20199;-52
2023/04/17 02:38:13;;;;;;;50.67;29.67;;;7.10;1.00;;;;;;5035251;28;20179;-53
2023/04/17 02:40:38;;;;;;;47.40;28.70;;;7.10;1.00;;;;;;5035133;28;20603;-52
2023/04/17 02:43:04;;;;;;;59.50;32.70;;;7.10;1.00;;;;;;5035522;28;20187;-52
2023/04/17 02:45:30;;;;;;;48.43;29.40;;;7.10;1.00;;;;;;5034932;28;20546;-52
2023/04/17 02:47:56;;;;;;;49.80;31.20;;;7.10;17.80;;;;;;5034616;28;20277;-52
2023/04/17 02:50:21;;;;;;;56.17;30.50;;;7.10;32.30;;;;;;5035047;28;20179;-51
2023/04/17 02:52:47;;;;;;;53.47;31.50;;;7.10;42.10;;;;;;5035310;28;20434;-51
2023/04/17 02:55:13;;;;;;;58.30;32.27;;;7.10;40.00;;;;;;5035246;28;20234;-52
2023/04/17 02:57:38;;;;;;;52.20;31.93;;;7.00;36.60;;;;;;5034937;28;20696;-53
2023/04/17 03:00:09;;;;;;;50.30;29.83;;;7.10;51.40;;;;;;5034941;28;20183;-53
2023/04/17 03:02:35;;;;;;;47.20;29.63;;;7.10;58.90;;;;;;5035101;28;20612;-52
2023/04/17 03:05:03;;;;;;;47.83;30.67;;;7.00;49.80;;;;;;5034523;28;20562;-52
2023/04/17 03:07:29;;;;;;;52.27;30.57;;;7.00;41.00;;;;;;5034921;28;20195;-53
2023/04/17 03:09:56;;;;;;;47.00;27.70;;;7.00;49.40;;;;;;5034653;28;20406;-53
2023/04/17 03:12:22;;;;;;;54.90;31.10;;;7.00;61.50;;;;;;5034426;28;20636;-52
2023/04/17 03:14:48;;;;;;;49.43;29.30;;;6.90;59.70;;;;;;5033405;28;20896;-52
2023/04/17 03:17:15;;;;;;;47.63;28.73;;;6.90;75.90;;;;;;5034479;28;20509;-53
2023/04/17 03:19:40;;;;;;;48.70;29.87;;;6.90;86.60;;;;;;5034594;28;20176;-52
2023/04/17 03:22:06;;;;;;;55.10;30.90;;;6.90;87.10;;;;;;5034851;28;20425;-52
2023/04/17 03:24:32;;;;;;;51.97;31.60;;;6.90;99.40;;;;;;5034605;28;20186;-52
2023/04/17 03:26:58;;;;;;;54.77;32.03;;;6.80;99.90;;;;;;5034616;28;20175;-52
2023/04/17 03:29:24;;;;;;;56.83;30.87;;;6.80;99.90;;;;;;5034571;28;20423;-52
2023/04/17 03:31:50;;;;;;;52.97;31.20;;;6.80;99.90;;;;;;5034538;28;20421;-53
2023/04/17 03:34:17;;;;;;;52.10;32.27;;;6.80;99.90;;;;;;5034286;28;20665;-53
2023/04/17 03:36:42;;;;;;;53.30;31.10;;;6.80;99.90;;;;;;5034422;28;20276;-52
2023/04/17 03:39:08;;;;;;;53.00;30.27;;;6.80;99.90;;;;;;5034525;28;20763;-52
2023/04/17 03:41:34;;;;;;;57.47;31.83;;;6.70;99.90;;;;;;5034346;28;20630;-52
2023/04/17 03:43:59;;;;;;;50.70;29.40;;;6.70;99.90;;;;;;5034407;28;20286;-53
2023/04/17 03:46:25;;;;;;;52.50;30.80;;;6.70;99.90;;;;;;5034451;28;20219;-52
2023/04/17 03:48:50;;;;;;;52.80;29.83;;;6.70;99.90;;;;;;5033510;28;20238;-52
2023/04/17 03:51:16;;;;;;;54.37;32.13;;;6.70;99.90;;;;;;5034132;28;20176;-52
2023/04/17 03:53:42;;;;;;;50.97;30.63;;;6.70;99.90;;;;;;5033752;28;20265;-53
2023/04/17 03:56:07;;;;;;;57.30;32.07;;;6.70;99.90;;;;;;5033966;28;20210;-52
2023/04/17 03:58:33;;;;;;;61.87;34.90;;;6.70;99.90;;;;;;5065834;28;20182;-52
2023/04/17 04:01:00;;;;;;;56.37;34.50;;;6.70;99.90;;;;;;5034183;28;20183;-52
2023/04/17 04:03:26;;;;;;;64.50;34.83;;;6.70;99.90;;;;;;5033915;28;20643;-52
2023/04/17 04:05:52;;;;;;;64.53;35.93;;;6.70;99.90;;;;;;5033607;28;20476;-52
2023/04/17 04:08:18;;;;;;;66.13;37.20;;;6.70;99.90;;;;;;5033455;28;20446;-52
2023/04/17 04:10:44;;;;;;;63.63;35.63;;;6.70;99.90;;;;;;5033967;28;20214;-51
2023/04/17 04:13:11;;;;;;;66.33;38.40;;;6.70;99.90;;;;;;5033866;28;20183;-52
2023/04/17 04:15:36;;;;;;;79.67;37.93;;;6.80;99.90;;;;;;5033403;28;20505;-51
2023/04/17 04:18:02;;;;;;;65.03;37.37;;;6.80;99.90;;;;;;5033334;28;20448;-52
2023/04/17 04:20:28;;;;;;;64.97;38.33;;;6.80;99.90;;;;;;5034096;28;20193;-52
2023/04/17 04:22:56;;;;;;;67.80;37.77;;;6.80;99.90;;;;;;5034033;28;20215;-51
2023/04/17 04:25:22;;;;;;;74.20;38.13;;;6.80;99.90;;;;;;5035707;28;20915;-51
2023/04/17 04:27:50;;;;;;;69.07;38.80;;;6.80;99.90;;;;;;5038074;28;20865;-51
2023/04/17 04:30:16;;;;;;;67.40;36.17;;;6.80;99.90;;;;;;5037931;28;20418;-52
2023/04/17 04:32:44;;;;;;;70.10;38.90;;;6.80;99.90;;;;;;5037732;28;20423;-52
2023/04/17 04:35:13;;;;;;;70.93;39.47;;;6.80;99.90;;;;;;5037310;28;20693;-52
2023/04/17 04:37:41;;;;;;;69.13;39.07;;;6.80;99.90;;;;;;5037900;28;20771;-51
2023/04/17 04:40:09;;;;;;;65.77;37.47;;;6.80;99.90;;;;;;5037705;28;20920;-51
2023/04/17 04:42:36;;;;;;;68.57;38.40;;;6.80;99.90;;;;;;5037337;28;20779;-51
2023/04/17 04:45:03;;;;;;;70.83;38.47;;;6.90;99.90;;;;;;5037732;28;20494;-51
2023/04/17 04:47:29;;;;;;;74.93;39.47;;;6.90;99.90;;;;;;5037265;28;20466;-52
2023/04/17 04:49:54;;;;;;;70.23;39.40;;;6.90;99.90;;;;;;5037626;28;20433;-52
2023/04/17 04:52:20;;;;;;;62.57;37.57;;;6.90;99.90;;;;;;5037458;28;20184;-51
2023/04/17 04:54:46;;;;;;;68.70;39.20;;;6.90;99.90;;;;;;5037209;28;20184;-51
2023/04/17 04:57:11;;;;;;;72.03;40.40;;;6.90;99.90;;;;;;5036939;28;20180;-51
2023/04/17 04:59:37;;;;;;;72.73;40.40;;;7.00;99.90;;;;;;5037308;28;20226;-51
2023/04/17 05:02:02;;;;;;;79.03;42.03;;;7.00;99.90;;;;;;5037173;28;20190;-51
2023/04/17 05:04:28;;;;;;;70.40;41.70;;;7.00;99.90;;;;;;5037309;28;20182;-51
2023/04/17 05:06:55;;;;;;;71.27;40.03;;;7.00;99.90;;;;;;5036916;28;20214;-51
2023/04/17 05:09:21;;;;;;;75.43;39.97;;;7.10;99.90;;;;;;5037070;28;20183;-51
2023/04/17 05:11:47;;;;;;;77.80;42.77;;;7.10;99.90;;;;;;5036749;28;20414;-51
2023/04/17 05:14:12;;;;;;;75.43;40.83;;;7.20;99.90;;;;;;5037004;28;20191;-51
2023/04/17 05:16:38;;;;;;;71.40;39.60;;;7.20;99.90;;;;;;5036938;28;20203;-51
2023/04/17 05:19:03;;;;;;;76.77;41.90;;;7.30;99.90;;;;;;5037150;28;20707;-51
2023/04/17 05:21:30;;;;;;;67.00;39.70;;;7.30;99.90;;;;;;5037042;28;20188;-51
2023/04/17 05:23:55;;;;;;;76.27;40.27;;;7.40;99.90;;;;;;5036777;28;20188;-51
2023/04/17 05:26:21;;;;;;;70.37;41.13;;;7.40;99.90;;;;;;5036909;28;20752;-51
2023/04/17 05:28:47;;;;;;;81.30;40.70;;;7.50;99.90;;;;;;5036338;28;20241;-51
2023/04/17 05:31:13;;;;;;;66.43;39.97;;;7.50;99.90;;;;;;5036757;28;20262;-51
2023/04/17 05:33:39;;;;;;;70.07;40.27;;;7.60;99.90;;;;;;5036305;28;20467;-52
2023/04/17 05:36:05;;;;;;;62.37;36.43;;;7.70;99.90;;;;;;5035991;28;20457;-51
2023/04/17 05:38:31;;;;;;;56.13;33.93;;;7.70;99.90;;;;;;5036067;28;20186;-51
2023/04/17 05:40:57;;;;;;;65.30;37.27;;;7.80;99.90;;;;;;5036655;28;20505;-52
2023/04/17 05:43:22;;;;;;;76.40;39.77;;;7.90;99.90;;;;;;5036564;28;20934;-51
2023/04/17 05:45:48;;;;;;;64.40;38.17;;;8.00;99.90;;;;;;5036463;28;20519;-52
2023/04/17 05:48:13;;;;;;;59.20;35.97;;;8.10;99.90;;;;;;5035825;28;20330;-52
2023/04/17 05:50:39;;;;;;;60.10;36.83;;;8.20;99.90;;;;;;5036419;28;20188;-51
2023/04/17 05:53:05;;;;;;;64.83;37.80;;;8.20;99.90;;;;;;5036229;28;20217;-51
2023/04/17 05:55:31;;;;;;;69.43;38.93;;;8.30;99.90;;;;;;5036213;28;20688;-51
2023/04/17 05:57:56;;;;;;;68.70;38.50;;;8.40;99.90;;;;;;5036445;28;20651;-52
2023/04/17 06:00:23;;;;;;;63.07;36.43;;;8.50;99.90;;;;;;5036469;28;20628;-51
2023/04/17 06:02:49;;;;;;;70.20;40.27;;;8.50;99.90;;;;;;5035942;28;20180;-51
2023/04/17 06:05:16;;;;;;;63.90;38.20;;;8.60;99.90;;;;;;5035858;28;20763;-52
2023/04/17 06:07:42;;;;;;;64.43;38.60;;;8.70;99.90;;;;;;5036199;28;20417;-51
2023/04/17 06:10:09;;;;;;;61.77;37.10;;;8.70;99.90;;;;;;5036035;28;20905;-54
2023/04/17 06:12:36;;;;;;;71.13;38.00;;;8.80;99.90;;;;;;5035569;28;20476;-50
2023/04/17 06:15:02;;;;;;;63.70;38.63;;;9.00;99.90;;;;;;5035726;28;20469;-50
2023/04/17 06:17:29;;;;;;;62.07;37.30;;;9.10;99.90;;;;;;5035726;28;20482;-51
2023/04/17 06:19:54;;;;;;;66.07;38.03;;;9.20;99.90;;;;;;5035748;28;20461;-51
2023/04/17 06:22:20;;;;;;;64.27;40.60;;;9.30;99.90;;;;;;5034814;28;20433;-52
2023/04/17 06:24:46;;;;;;;58.33;37.07;;;9.50;99.90;;;;;;5035915;28;20619;-53
2023/04/17 06:27:11;;;;;;;60.17;35.80;;;9.60;99.90;;;;;;5035217;28;20293;-53
2023/04/17 06:29:37;;;;;;;59.13;35.50;;;9.80;99.90;;;;;;5035598;28;20187;-52
2023/04/17 06:32:03;;;;;;;56.90;35.97;;;9.90;66.20;;;;;;5035307;28;20222;-53
2023/04/17 06:34:29;;;;;;;62.57;37.20;;;10.00;1.00;;;;;;5035362;28;20636;-53
2023/04/17 06:36:54;;;;;;;76.63;44.37;;;10.30;1.00;;;;;;5035152;28;20234;-53
2023/04/17 06:39:21;;;;;;;75.57;42.93;;;10.40;1.00;;;;;;5035152;28;20187;-53
2023/04/17 06:41:49;;;;;;;60.23;34.80;;;10.70;99.90;;;;;;5035584;28;20190;-53
2023/04/17 06:44:14;;;;;;;56.10;31.30;;;10.90;99.90;;;;;;5035293;28;20422;-53
2023/04/17 06:46:40;;;;;;;55.03;32.20;;;11.20;1.00;;;;;;5035330;28;20430;-53
2023/04/17 06:49:05;;;;;;;52.03;31.93;;;11.40;1.00;;;;;;5035335;28;20178;-53
2023/04/17 06:51:31;;;;;;;44.97;29.97;;;11.80;1.30;;;;;;5035343;28;20536;-54
2023/04/17 06:53:58;;;;;;;47.80;30.30;;;12.00;1.00;;;;;;5035253;28;20180;-53
2023/04/17 06:56:24;;;;;;;47.03;28.90;;;12.20;99.90;;;;;;5035444;28;20763;-53
2023/04/17 06:58:50;;;;;;;48.60;30.67;;;12.30;99.90;;;;;;5035400;28;20418;-54
2023/04/17 07:01:15;;;;;;;49.37;29.90;;;12.50;99.90;;;;;;5035057;28;20770;-54
2023/04/17 07:03:41;;;;;;;45.60;29.60;;;12.70;6.30;;;;;;5035084;28;20211;-53
2023/04/17 07:06:08;;;;;;;49.63;29.93;;;13.00;1.00;;;;;;5034273;28;20193;-53
2023/04/17 07:08:34;;;;;;;42.83;27.93;;;13.30;1.00;;;;;;5035280;28;20425;-53
2023/04/17 07:11:00;;;;;;;46.13;27.80;;;13.50;1.00;;;;;;5034731;28;20509;-53
2023/04/17 07:13:30;;;;;;;48.13;28.70;;;13.90;1.00;;;;;;5034535;28;20181;-53
2023/04/17 07:15:56;;;;;;;44.90;27.93;;;14.20;1.00;;;;;;5034385;28;20508;-54
2023/04/17 07:18:22;;;;;;;47.20;28.03;;;14.50;1.00;;;;;;5035198;28;20484;-54
2023/04/17 07:20:48;;;;;;;43.23;26.70;;;14.70;1.00;;;;;;5034553;28;20898;-55
2023/04/17 07:23:14;;;;;;;43.40;27.60;;;14.90;1.00;;;;;;5034562;28;20226;-54
2023/04/17 07:25:40;;;;;;;39.77;26.23;;;15.20;1.00;;;;;;5034922;28;20200;-55
2023/04/17 07:28:06;;;;;;;43.37;26.83;;;15.30;1.00;;;;;;5034713;28;20414;-54
2023/04/17 07:30:32;;;;;;;34.63;24.87;;;15.40;1.00;;;;;;5034440;28;20181;-55
2023/04/17 07:32:58;;;;;;;43.80;26.97;;;15.60;1.00;;;;;;5034792;28;20417;-54
2023/04/17 07:35:23;;;;;;;39.67;26.77;;;15.70;1.00;;;;;;5034368;28;20552;-55
2023/04/17 07:37:49;;;;;;;38.00;26.37;;;15.90;1.00;;;;;;5034382;28;20270;-55
2023/04/17 07:40:16;;;;;;;37.57;25.30;;;16.20;1.00;;;;;;5034669;28;20179;-55
2023/04/17 07:42:41;;;;;;;35.00;24.80;;;16.30;1.00;;;;;;5034394;28;20211;-55
2023/04/17 07:45:07;;;;;;;37.90;25.03;;;16.50;1.00;;;;;;5034617;28;20445;-55
2023/04/17 07:47:33;;;;;;;36.53;25.70;;;16.60;1.00;;;;;;5034212;28;20240;-55
2023/04/17 07:49:59;;;;;;;39.90;26.67;;;16.50;1.00;;;;;;5034108;28;20448;-55
2023/04/17 07:52:24;;;;;;;36.57;25.37;;;16.50;1.00;;;;;;5034434;28;20647;-55
2023/04/17 07:54:50;;;;;;;37.90;24.27;;;16.80;1.00;;;;;;5036902;28;20662;-56
2023/04/17 07:57:16;;;;;;;39.00;23.80;;;17.10;1.00;;;;;;5053686;28;20223;-55
2023/04/17 07:59:42;;;;;;;37.33;25.00;;;17.40;1.00;;;;;;5053371;28;20193;-55
2023/04/17 08:02:08;;;;;;;33.53;24.20;;;17.30;1.00;;;;;;5054038;28;20431;-56
2023/04/17 08:04:34;;;;;;;36.47;23.70;;;17.50;1.00;;;;;;5053684;28;20523;-55
2023/04/17 08:07:00;;;;;;;29.67;22.07;;;17.40;1.00;;;;;;5053884;28;20188;-55
2023/04/17 08:09:26;;;;;;;31.50;22.10;;;17.70;1.00;;;;;;5053935;28;20756;-54
2023/04/17 08:11:51;;;;;;;31.13;22.33;;;18.00;1.00;;;;;;5053571;28;20658;-55
2023/04/17 08:14:19;;;;;;;31.70;21.40;;;18.20;1.00;;;;;;5053468;28;20181;-56
2023/04/17 08:16:46;;;;;;;26.83;19.20;;;18.10;1.00;;;;;;5053591;28;20213;-56
2023/04/17 08:19:12;;;;;;;37.83;21.00;;;18.10;1.00;;;;;;5053876;28;20421;-56
2023/04/17 08:21:38;;;;;;;29.03;19.37;;;18.10;1.00;;;;;;5053613;28;20420;-56
2023/04/17 08:24:03;;;;;;;26.40;17.97;;;18.00;1.00;;;;;;5053830;28;20849;-55
2023/04/17 08:26:29;;;;;;;25.83;17.77;;;18.10;1.00;;;;;;5053590;28;20189;-55
2023/04/17 08:28:55;;;;;;;24.67;17.40;;;18.10;1.00;;;;;;5053563;28;20187;-55
2023/04/17 08:31:21;;;;;;;23.70;17.33;;;18.40;1.00;;;;;;5053367;28;20241;-56
2023/04/17 08:33:46;;;;;;;22.87;15.83;;;18.70;1.00;;;;;;5053321;28;20178;-57
2023/04/17 08:36:12;;;;;;;28.53;17.93;;;18.80;1.00;;;;;;5053199;28;20262;-55
2023/04/17 08:38:37;;;;;;;24.13;17.90;;;19.10;1.00;;;;;;5053275;28;20172;-56
2023/04/17 08:41:08;;;;;;;23.53;17.00;;;19.20;1.00;;;;;;5053603;28;20189;-56
2023/04/17 08:43:35;;;;;;;20.70;15.83;;;19.50;1.00;;;;;;5053531;28;20182;-55
2023/04/17 08:46:01;;;;;;;19.13;14.77;;;19.50;1.00;;;;;;5053717;28;20447;-57
2023/04/17 08:48:27;;;;;;;25.40;15.50;;;19.50;1.00;;;;;;5053303;28;20472;-56
2023/04/17 08:50:53;;;;;;;18.07;14.37;;;19.50;1.00;;;;;;5053626;28;20801;-58
2023/04/17 08:53:19;;;;;;;18.03;14.10;;;19.30;1.00;;;;;;5053261;28;20587;-57
2023/04/17 08:55:46;;;;;;;20.47;16.00;;;19.50;1.00;;;;;;5053342;28;20564;-59
2023/04/17 08:58:13;;;;;;;21.20;14.90;;;19.60;1.00;;;;;;5053744;28;20423;-57
2023/04/17 09:00:40;;;;;;;21.53;14.77;;;19.70;1.00;;;;;;5053480;28;20461;-57
2023/04/17 09:03:10;;;;;;;19.37;13.87;;;20.00;1.00;;;;;;5053464;28;20459;-56
2023/04/17 09:05:37;;;;;;;14.90;13.23;;;20.10;1.00;;;;;;5053558;28;20504;-56
2023/04/17 09:08:19;;;;;;;20.00;13.53;;;20.40;1.00;;;;;;5053616;28;20500;-59
2023/04/17 09:10:48;;;;;;;15.73;12.77;;;20.60;1.00;;;;;;5053799;28;20423;-58
2023/04/17 09:13:15;;;;;;;16.43;13.40;;;20.50;1.00;;;;;;5057001;28;20420;-57
2023/04/17 09:15:42;;;;;;;18.33;13.57;;;20.60;1.00;;;;;;5056655;28;20970;-55
2023/04/17 09:18:26;;;;;;;19.83;13.43;;;20.60;1.00;;;;;;5057086;28;20431;-57
2023/04/17 09:20:51;;;;;;;15.63;12.70;;;20.70;1.00;;;;;;5057093;28;20404;-57
2023/04/17 09:23:18;;;;;;;16.03;12.20;;;20.60;1.00;;;;;;5057095;28;20908;-58
2023/04/17 09:25:43;;;;;;;17.17;13.73;;;20.60;1.00;;;;;;5056726;28;20617;-58
2023/04/17 09:28:12;;;;;;;21.87;12.00;;;20.50;1.00;;;;;;5056467;28;20491;-58
2023/04/17 09:30:39;;;;;;;15.93;11.67;;;20.30;1.00;;;;;;5056403;28;20641;-57
2023/04/17 09:33:07;;;;;;;14.80;11.90;;;20.20;1.00;;;;;;5057011;28;20408;-58
2023/04/17 09:35:33;;;;;;;16.40;11.40;;;19.90;1.00;;;;;;5056397;28;20456;-59
2023/04/17 09:37:59;;;;;;;12.40;11.00;;;19.70;1.00;;;;;;5056745;28;20805;-58
2023/04/17 09:40:26;;;;;;;16.47;11.27;;;19.40;1.00;;;;;;5056969;28;20465;-58
2023/04/17 09:43:03;;;;;;;18.30;11.20;;;19.20;1.00;;;;;;5056834;28;20185;-58
2023/04/17 09:45:40;;;;;;;16.57;11.60;;;18.90;1.00;;;;;;5056816;28;20404;-57
2023/04/17 09:48:09;;;;;;;15.80;10.73;;;18.80;1.00;;;;;;5056100;28;20475;-58
2023/04/17 09:50:35;;;;;;;15.33;11.23;;;18.80;1.00;;;;;;5056520;28;20425;-57
2023/04/17 09:53:03;;;;;;;16.83;10.13;;;18.70;1.00;;;;;;5056228;28;20439;-57
2023/04/17 09:55:30;;;;;;;19.57;12.23;;;18.60;1.00;;;;;;5056278;28;21024;-57
2023/04/17 09:57:58;;;;;;;14.13;10.43;;;18.50;1.00;;;;;;5056522;28;20423;-56
2023/04/17 10:00:28;;;;;;;14.20;9.60;;;18.50;1.00;;;;;;5056007;28;20419;-56
2023/04/17 10:02:55;;;;;;;12.70;9.80;;;18.50;1.00;;;;;;5056473;28;20431;-57
2023/04/17 10:05:23;;;;;;;15.73;11.23;;;18.50;1.00;;;;;;5056593;28;20420;-55
2023/04/17 10:07:49;;;;;;;12.93;10.40;;;18.50;1.00;;;;;;5056438;28;20464;-56
2023/04/17 10:10:32;;;;;;;15.90;10.90;;;18.60;1.00;;;;;;5056183;28;20427;-55
2023/04/17 10:13:01;;;;;;;18.10;10.43;;;18.70;1.00;;;;;;5055907;28;20879;-55
2023/04/17 10:15:27;;;;;;;14.63;10.53;;;18.90;1.00;;;;;;5055926;28;20460;-56
2023/04/17 10:17:56;;;;;;;15.67;10.20;;;19.20;1.00;;;;;;5056051;28;20919;-56
2023/04/17 10:20:22;;;;;;;17.43;9.93;;;19.50;1.00;;;;;;5056326;28;20421;-56
2023/04/17 10:22:53;;;;;;;13.23;10.07;;;19.90;1.00;;;;;;5055339;28;20791;-55
2023/04/17 10:25:28;;;;;;;16.37;10.30;;;20.10;1.00;;;;;;5056078;28;20518;-56
2023/04/17 10:27:59;;;;;;;13.73;9.20;;;20.00;1.00;;;;;;5055912;28;20412;-56
2023/04/17 10:30:48;;;;;;;16.97;11.93;;;19.70;1.00;;;;;;5055864;28;20505;-59
2023/04/17 10:33:23;;;;;;;16.90;12.03;;;19.50;1.00;;;;;;5055575;28;20408;-57
2023/04/17 10:35:49;;;;;;;14.67;11.67;;;19.10;1.00;;;;;;5055262;28;20486;-58
2023/04/17 10:38:16;;;;;;;19.10;12.77;;;19.10;1.00;;;;;;5055600;28;20427;-58
2023/04/17 10:40:43;;;;;;;18.80;12.73;;;18.90;1.00;;;;;;5055505;28;20182;-56
2023/04/17 10:43:23;;;;;;;15.73;9.93;;;18.90;1.00;;;;;;5055036;28;20428;-57
2023/04/17 10:46:11;;;;;;;17.30;11.70;;;18.60;1.00;;;;;;5055715;28;20722;-57
2023/04/17 10:48:39;;;;;;;14.97;10.77;;;18.80;1.00;;;;;;5055733;28;20947;-56
2023/04/17 10:51:20;;;;;;;14.57;9.90;;;19.30;1.00;;;;;;5055164;28;20503;-57
2023/04/17 10:53:47;;;;;;;14.67;9.50;;;20.10;1.00;;;;;;5054974;28;20423;-58
2023/04/17 10:56:22;;;;;;;12.10;10.00;;;20.90;1.00;;;;;;5054676;28;20823;-57
2023/04/17 10:58:59;;;;;;;14.23;11.63;;;20.60;1.00;;;;;;5054987;28;20470;-57
2023/04/17 11:01:30;;;;;;;17.80;10.50;;;20.70;1.00;;;;;;5055255;28;20510;-56
2023/04/17 11:03:58;;;;;;;17.80;10.97;;;21.30;1.00;;;;;;5055117;28;20413;-57
2023/04/17 11:06:35;;;;;;;12.73;10.30;;;21.60;1.00;;;;;;5054648;28;20937;-58
2023/04/17 11:09:05;;;;;;;20.33;12.53;;;21.80;99.90;;;;;;5055036;28;20420;-58
2023/04/17 11:11:44;;;;;;;17.77;12.67;;;22.00;1.00;;;;;;5055016;28;20505;-57
2023/04/17 11:14:13;;;;;;;18.30;13.30;;;22.20;1.00;;;;;;5054714;28;20448;-58
2023/04/17 11:16:40;;;;;;;15.90;12.20;;;22.40;99.90;;;;;;5054906;28;20466;-59
2023/04/17 11:19:14;;;;;;;19.53;11.60;;;22.70;99.90;;;;;;5054684;28;20428;-57
2023/04/17 11:21:43;;;;;;;18.63;11.10;;;22.10;99.90;;;;;;5054395;28;20452;-58
2023/04/17 11:24:09;;;;;;;12.23;10.10;;;22.10;99.90;;;;;;5054613;28;20445;-58
2023/04/17 11:26:45;;;;;;;12.73;9.97;;;22.20;99.90;;;;;;5054387;28;20838;-58
2023/04/17 11:29:18;;;;;;;18.30;11.20;;;22.40;99.90;;;;;;5054536;28;20253;-58
2023/04/17 11:31:45;;;;;;;15.07;8.90;;;22.50;99.90;;;;;;5054870;28;20498;-58
2023/04/17 11:34:11;;;;;;;12.30;8.20;;;22.60;99.90;;;;;;5054187;28;20499;-58
2023/04/17 11:36:37;;;;;;;11.07;8.40;;;22.70;99.90;;;;;;5054259;28;20763;-56
2023/04/17 11:39:03;;;;;;;13.37;7.43;;;23.00;99.90;;;;;;5054513;28;20417;-58
2023/04/17 11:41:41;;;;;;;14.40;7.53;;;22.70;99.90;;;;;;5054596;28;20174;-56
2023/04/17 11:44:12;;;;;;;9.57;7.00;;;22.50;99.90;;;;;;5054195;28;20833;-58
2023/04/17 11:46:37;;;;;;;11.83;7.97;;;22.70;99.90;;;;;;5054185;28;20448;-57
2023/04/17 11:49:06;;;;;;;14.03;8.00;;;22.90;99.90;;;;;;5054126;28;20843;-56
2023/04/17 11:51:32;;;;;;;22.97;8.00;;;22.50;99.90;;;;;;5053977;28;20687;-57
2023/04/17 11:53:58;;;;;;;11.30;8.20;;;22.20;99.90;;;;;;5054015;28;20455;-58
2023/04/17 11:56:28;;;;;;;13.07;7.50;;;22.50;99.90;;;;;;5053883;28;20212;-58
2023/04/17 11:58:56;;;;;;;11.50;8.10;;;22.50;99.90;;;;;;5053976;28;20960;-57
2023/04/17 12:01:25;;;;;;;13.77;7.87;;;23.00;99.90;;;;;;5053865;28;20440;-59
2023/04/17 12:03:56;;;;;;;9.40;7.80;;;22.90;99.90;;;;;;5053726;28;20942;-57
2023/04/17 12:06:26;;;;;;;14.37;7.03;;;22.60;99.90;;;;;;5053459;28;20418;-57
2023/04/17 12:08:54;;;;;;;13.17;7.03;;;22.60;99.90;;;;;;5053894;28;20419;-57
2023/04/17 12:11:27;;;;;;;14.97;7.03;;;22.30;99.90;;;;;;5053843;28;20445;-57
2023/04/17 12:13:54;;;;;;;10.40;6.90;;;22.00;99.90;;;;;;5053692;28;20444;-57
2023/04/17 12:16:20;;;;;;;12.47;7.67;;;22.00;99.90;;;;;;5053691;28;20470;-57
2023/04/17 12:18:45;;;;;;;12.30;8.40;;;21.70;99.90;;;;;;5053717;28;20524;-57
2023/04/17 12:21:11;;;;;;;12.50;8.10;;;21.70;99.90;;;;;;5053750;28;20653;-57
2023/04/17 12:23:37;;;;;;;14.60;9.23;;;22.10;99.90;;;;;;5053607;28;20236;-57
2023/04/17 12:26:03;;;;;;;10.97;8.40;;;22.20;99.90;;;;;;5053402;28;20424;-56
2023/04/17 12:28:29;;;;;;;12.30;9.33;;;22.30;99.90;;;;;;5053904;28;20181;-56
2023/04/17 12:30:55;;;;;;;11.90;9.77;;;22.40;99.90;;;;;;5053307;28;20244;-56
2023/04/17 12:33:21;;;;;;;18.13;9.90;;;22.60;99.90;;;;;;5053250;28;20416;-57
2023/04/17 12:35:46;;;;;;;14.13;9.67;;;22.50;99.90;;;;;;5053424;28;20209;-57